Abbot Village, Maine
Current Conditions -  °F | °C
As of 10:53 PM on Sunday 23 Nov 2014 (Local Time) from KBGR Reporting Station
Broken Clouds Broken Clouds  
Wind Chill: 39°   Ceiling: 4600
Heat Index: 39°   Visibility: 10mi
Dew Point: 35°   Wind: 3mph
Humidity: 86%   Direction: 200°SSW
Pressure: 30.14"   Gusts: NA
Location:  45.19°N, 69.45°W
Report Text: KBGR 240353Z 20003KT 10SM BKN046 04/02 A3014 RMK AO2 SLP209 T00390017
Loading
Personal Weather Stations






























Interactive Weather Map New forecast layout! Learn more

10-Day Weather Forecast

Advertisements
Track Severe Weather on mobile